Time;durP1;ratioP1;P1;durP2;ratioP2;P2;SDS_P1;SDS_P2;PMS_P1;PMS_P2;Temp;Humidity;BMP_temperature;BMP_pressure;BME280_temperature;BME280_humidity;BME280_pressure;Samples;Min_cycle;Max_cycle;Signal;HPM_P1;HPM_P2
2022/05/10 00:00:27;;;;;;;0.70;0.68;;;12.60;99.90;;;;;;5029262;28;20053;-73
2022/05/10 00:02:59;;;;;;;2.30;0.50;;;12.60;99.90;;;;;;5029502;28;20410;-73
2022/05/10 00:05:32;;;;;;;1.00;0.98;;;12.70;99.90;;;;;;5034857;28;20048;-72
2022/05/10 00:07:59;;;;;;;0.38;0.38;;;12.80;99.90;;;;;;5029226;28;20056;-75
2022/05/10 00:10:25;;;;;;;0.40;0.40;;;12.80;99.90;;;;;;5039800;28;20053;-75
2022/05/10 00:12:51;;;;;;;;;;;12.70;99.90;;;;;;5028029;28;20064;-74
2022/05/10 00:15:18;;;;;;;0.50;0.50;;;12.70;99.90;;;;;;5028064;28;19923;-74
2022/05/10 00:17:43;;;;;;;;;;;12.60;99.90;;;;;;5030026;28;20080;-76
2022/05/10 00:20:14;;;;;;;0.30;0.30;;;12.60;99.90;;;;;;5039716;28;19975;-74
2022/05/10 00:22:40;;;;;;;1.15;1.05;;;12.50;99.90;;;;;;5034782;28;20147;-74
2022/05/10 00:25:08;;;;;;;0.68;0.68;;;12.50;99.90;;;;;;5019701;28;20037;-73
2022/05/10 00:27:34;;;;;;;0.35;0.35;;;12.40;99.90;;;;;;5036464;28;20037;-74
2022/05/10 00:30:00;;;;;;;3.10;1.38;;;12.40;99.90;;;;;;5033268;28;20399;-74
2022/05/10 00:32:31;;;;;;;1.00;1.00;;;12.40;99.90;;;;;;5035862;28;20129;-74
2022/05/10 00:34:57;;;;;;;0.55;0.55;;;12.30;99.90;;;;;;5026264;28;20044;-73
2022/05/10 00:37:22;;;;;;;0.30;0.30;;;12.30;99.90;;;;;;5036031;28;20044;-75
2022/05/10 00:39:48;;;;;;;0.40;0.40;;;12.20;99.90;;;;;;5033387;28;20056;-76
2022/05/10 00:42:25;;;;;;;;;;;12.20;99.90;;;;;;5019272;28;20774;-75
2022/05/10 00:45:01;;;;;;;0.30;0.30;;;12.20;99.90;;;;;;5035997;28;19920;-75
2022/05/10 00:47:36;;;;;;;0.30;0.30;;;12.10;99.90;;;;;;5050529;28;20112;-74
2022/05/10 00:50:32;;;;;;;0.40;0.40;;;12.10;99.90;;;;;;5033643;28;20041;-75
2022/05/10 00:53:05;;;;;;;0.52;0.52;;;12.10;99.90;;;;;;5028151;28;20053;-75
2022/05/10 00:56:06;;;;;;;0.70;0.70;;;12.10;99.90;;;;;;5044547;28;20057;-73
2022/05/10 00:58:52;;;;;;;0.50;0.50;;;12.10;99.90;;;;;;5036878;28;20101;-74
2022/05/10 01:01:25;;;;;;;0.63;0.63;;;12.00;99.90;;;;;;5053750;28;20046;-75
2022/05/10 01:04:03;;;;;;;0.50;0.50;;;12.00;99.90;;;;;;5032237;28;20143;-73
2022/05/10 01:06:37;;;;;;;0.32;0.32;;;11.90;99.90;;;;;;5037972;28;20513;-75
2022/05/10 01:09:22;;;;;;;0.20;0.20;;;11.80;99.90;;;;;;5031958;28;20102;-75
2022/05/10 01:11:53;;;;;;;0.30;0.30;;;11.80;99.90;;;;;;5037860;28;20397;-74
2022/05/10 01:14:35;;;;;;;0.85;0.85;;;11.70;99.90;;;;;;5033308;28;20076;-73
2022/05/10 01:17:01;;;;;;;0.40;0.40;;;11.70;99.90;;;;;;5028750;28;20045;-75
2022/05/10 01:19:26;;;;;;;0.40;0.40;;;11.70;99.90;;;;;;5033442;28;20402;-75
2022/05/10 01:22:04;;;;;;;0.30;0.30;;;11.70;99.90;;;;;;5041590;28;20041;-74
2022/05/10 01:24:41;;;;;;;0.30;0.30;;;11.60;99.90;;;;;;5029599;28;20495;-74
2022/05/10 01:27:28;;;;;;;0.30;0.30;;;11.60;99.90;;;;;;5030794;28;20057;-73
2022/05/10 01:30:06;;;;;;;0.20;0.20;;;11.60;99.90;;;;;;5047588;28;20148;-75
2022/05/10 01:36:10;;;;;;;0.20;0.20;;;11.70;99.90;;;;;;5040859;28;20517;-74
2022/05/10 01:38:48;;;;;;;0.50;0.50;;;11.80;99.90;;;;;;5013926;28;20126;-73
2022/05/10 01:41:40;;;;;;;0.30;0.30;;;11.80;99.90;;;;;;5023969;28;20042;-74
2022/05/10 01:44:29;;;;;;;0.30;0.30;;;11.90;99.90;;;;;;5030033;28;20124;-74
2022/05/10 01:47:06;;;;;;;0.30;0.30;;;12.00;99.90;;;;;;5044132;28;20064;-75
2022/05/10 01:49:49;;;;;;;0.40;0.40;;;12.10;99.90;;;;;;5031463;28;20147;-73
2022/05/10 01:52:30;;;;;;;0.30;0.30;;;12.20;99.90;;;;;;5045446;28;20120;-75
2022/05/10 01:55:14;;;;;;;0.20;0.20;;;12.30;99.90;;;;;;5027487;28;20133;-74
2022/05/10 01:57:40;;;;;;;0.40;0.40;;;12.40;99.90;;;;;;5036330;28;20219;-72
2022/05/10 02:00:19;;;;;;;0.30;0.30;;;12.50;99.90;;;;;;5030753;28;20132;-74
2022/05/10 02:02:53;;;;;;;0.32;0.32;;;12.60;99.90;;;;;;5031238;28;20041;-73
2022/05/10 02:05:44;;;;;;;0.60;0.60;;;12.70;99.90;;;;;;5031204;28;20037;-73
2022/05/10 02:08:33;;;;;;;0.50;0.50;;;12.80;99.90;;;;;;5045224;28;20037;-76
2022/05/10 02:11:04;;;;;;;0.40;0.40;;;12.90;99.90;;;;;;5031604;28;20471;-73
2022/05/10 02:13:37;;;;;;;0.30;0.30;;;12.90;99.90;;;;;;5030535;28;20088;-76
2022/05/10 02:16:23;;;;;;;0.32;0.32;;;13.00;99.90;;;;;;5036180;28;20083;-72
2022/05/10 02:18:52;;;;;;;0.30;0.30;;;13.10;99.90;;;;;;5038582;28;20048;-72
2022/05/10 02:21:24;;;;;;;0.40;0.40;;;13.20;99.90;;;;;;5030698;28;20041;-75
2022/05/10 02:24:09;;;;;;;0.40;0.40;;;13.30;99.90;;;;;;5031980;28;20049;-73
2022/05/10 02:26:44;;;;;;;0.45;0.45;;;13.30;99.90;;;;;;5050627;28;20073;-70
2022/05/10 02:29:23;;;;;;;0.40;0.40;;;13.50;99.90;;;;;;5030451;28;20042;-73
2022/05/10 02:34:45;;;;;;;0.32;0.32;;;13.80;99.90;;;;;;5031207;28;20411;-74
2022/05/10 02:37:12;;;;;;;0.40;0.40;;;13.90;99.90;;;;;;5028947;28;20041;-74
2022/05/10 02:39:38;;;;;;;0.30;0.30;;;13.90;99.90;;;;;;5026366;28;20049;-74
2022/05/10 02:42:06;;;;;;;0.30;0.30;;;13.90;99.90;;;;;;5026993;28;20058;-76
2022/05/10 02:44:32;;;;;;;0.55;0.50;;;13.90;99.90;;;;;;5043230;28;20049;-77
2022/05/10 02:46:57;;;;;;;0.47;0.47;;;13.90;99.90;;;;;;5016528;28;20047;-73
2022/05/10 02:49:23;;;;;;;0.20;0.20;;;14.10;99.90;;;;;;5037481;28;20041;-72
2022/05/10 02:51:49;;;;;;;0.40;0.40;;;14.00;99.90;;;;;;5035017;28;20096;-72
2022/05/10 02:54:14;;;;;;;;;;;13.90;99.90;;;;;;5042981;28;20057;-73
2022/05/10 02:56:42;;;;;;;0.30;0.30;;;13.90;99.90;;;;;;4997302;28;19935;-73
2022/05/10 02:59:28;;;;;;;1.55;1.48;;;13.90;99.90;;;;;;5044027;28;20041;-74
2022/05/10 03:02:16;;;;;;;0.30;0.30;;;13.90;99.90;;;;;;5049235;28;20050;-74
2022/05/10 03:04:49;;;;;;;0.22;0.22;;;13.90;99.90;;;;;;5011048;28;20049;-74
2022/05/10 03:07:15;;;;;;;0.50;0.47;;;13.90;99.90;;;;;;5049658;28;20041;-74
2022/05/10 03:09:41;;;;;;;1.33;1.27;;;13.80;99.90;;;;;;5032065;28;20151;-75
2022/05/10 03:12:07;;;;;;;;;;;13.70;99.90;;;;;;5028572;28;20041;-74
2022/05/10 03:14:33;;;;;;;0.30;0.30;;;13.70;99.90;;;;;;5030351;28;19917;-75
2022/05/10 03:16:59;;;;;;;0.93;0.93;;;13.70;99.90;;;;;;5036616;28;20107;-72
2022/05/10 03:19:24;;;;;;;0.20;0.20;;;13.60;99.90;;;;;;5013534;28;20053;-72
2022/05/10 03:21:50;;;;;;;0.95;0.95;;;13.50;99.90;;;;;;5045151;28;20052;-75
2022/05/10 03:24:16;;;;;;;0.90;0.90;;;13.50;99.90;;;;;;4997037;28;20049;-75
2022/05/10 03:26:49;;;;;;;;;;;13.40;99.90;;;;;;5033380;28;20486;-74
2022/05/10 03:29:16;;;;;;;0.47;0.47;;;13.40;99.90;;;;;;5014134;28;19925;-73
2022/05/10 03:31:42;;;;;;;1.05;1.00;;;13.40;99.90;;;;;;5030356;28;20114;-77
2022/05/10 03:36:52;;;;;;;0.75;0.75;;;13.40;99.90;;;;;;5058217;28;20049;-75
2022/05/10 03:39:17;;;;;;;0.70;0.70;;;13.50;99.90;;;;;;5013527;28;20109;-73
2022/05/10 03:41:43;;;;;;;0.40;0.40;;;13.50;99.90;;;;;;5030728;28;20056;-74
2022/05/10 03:44:09;;;;;;;0.82;0.82;;;13.50;99.90;;;;;;5035033;28;20060;-75
2022/05/10 03:46:35;;;;;;;;;;;13.60;99.90;;;;;;5032155;28;20446;-75
2022/05/10 03:49:01;;;;;;;0.30;0.30;;;13.60;99.90;;;;;;5046257;28;19917;-74
2022/05/10 03:51:27;;;;;;;0.30;0.30;;;13.70;99.90;;;;;;5028839;28;20064;-74
2022/05/10 03:53:53;;;;;;;0.38;0.38;;;13.70;99.90;;;;;;5051296;28;20041;-74
2022/05/10 03:56:18;;;;;;;;;;;13.60;99.90;;;;;;5029969;28;20041;-74
2022/05/10 03:58:44;;;;;;;0.57;0.57;;;13.60;99.90;;;;;;5050823;28;20274;-74
2022/05/10 04:01:10;;;;;;;0.93;0.57;;;13.70;99.90;;;;;;5017925;28;20049;-73
2022/05/10 04:03:35;;;;;;;1.02;0.98;;;13.70;99.90;;;;;;5028339;28;20049;-72
2022/05/10 04:06:02;;;;;;;0.68;0.68;;;13.70;99.90;;;;;;5014579;28;20029;-75
2022/05/10 04:08:28;;;;;;;0.70;0.70;;;13.80;99.90;;;;;;5028781;28;20048;-75
2022/05/10 04:10:54;;;;;;;0.65;0.65;;;13.90;99.90;;;;;;5041369;28;20471;-75
2022/05/10 04:13:20;;;;;;;0.57;0.57;;;13.90;99.90;;;;;;5030644;28;20045;-72
2022/05/10 04:15:45;;;;;;;;;;;14.00;99.90;;;;;;5029608;28;20124;-71
2022/05/10 04:18:11;;;;;;;0.17;0.17;;;14.10;99.90;;;;;;5029749;28;19921;-74
2022/05/10 04:20:36;;;;;;;0.93;0.85;;;14.10;99.90;;;;;;5031319;28;20568;-74
2022/05/10 04:23:02;;;;;;;1.30;1.30;;;14.10;99.90;;;;;;5019086;28;20041;-74
2022/05/10 04:25:28;;;;;;;;;;;14.20;99.90;;;;;;5030086;28;20045;-74
2022/05/10 04:27:54;;;;;;;0.75;0.75;;;14.20;99.90;;;;;;5025710;28;20243;-73
2022/05/10 04:30:21;;;;;;;0.50;0.50;;;14.20;99.90;;;;;;5028237;28;20049;-74
2022/05/10 04:32:47;;;;;;;0.40;0.40;;;14.30;99.90;;;;;;5040783;28;20045;-75
2022/05/10 04:35:13;;;;;;;0.40;0.40;;;14.40;99.90;;;;;;5010756;28;20044;-72
2022/05/10 04:37:39;;;;;;;;;;;14.40;99.90;;;;;;5038393;28;20056;-75
2022/05/10 04:42:52;;;;;;;0.98;0.70;;;14.50;99.90;;;;;;5045241;28;20510;-74
2022/05/10 04:45:18;;;;;;;0.73;0.73;;;14.60;99.90;;;;;;5018974;28;20513;-74
2022/05/10 04:47:44;;;;;;;0.40;0.40;;;14.60;99.90;;;;;;5034021;28;20052;-74
2022/05/10 04:50:10;;;;;;;;;;;14.70;99.90;;;;;;5022924;28;20038;-74
2022/05/10 04:52:36;;;;;;;0.30;0.30;;;14.70;99.90;;;;;;5037008;28;19924;-74
2022/05/10 04:55:02;;;;;;;0.73;0.73;;;14.70;99.90;;;;;;5040570;28;20042;-75
2022/05/10 04:57:28;;;;;;;0.43;0.43;;;14.80;99.90;;;;;;5029965;28;20037;-74
2022/05/10 04:59:54;;;;;;;0.20;0.20;;;14.80;99.90;;;;;;5029466;28;20044;-72
2022/05/10 05:02:19;;;;;;;;;;;14.80;99.90;;;;;;5047953;28;20406;-72
2022/05/10 05:04:45;;;;;;;0.70;0.70;;;14.90;99.90;;;;;;5018039;28;19921;-72
2022/05/10 05:07:10;;;;;;;;;;;14.90;99.90;;;;;;5033447;28;20045;-73
2022/05/10 05:09:36;;;;;;;0.25;0.25;;;14.90;99.90;;;;;;5045694;28;19923;-73
2022/05/10 05:12:04;;;;;;;0.30;0.30;;;15.00;99.90;;;;;;5033514;28;20045;-76
2022/05/10 05:14:31;;;;;;;0.30;0.30;;;15.00;99.90;;;;;;5027937;28;20034;-73
2022/05/10 05:16:58;;;;;;;0.47;0.47;;;15.10;99.90;;;;;;5018299;28;20124;-74
2022/05/10 05:19:23;;;;;;;0.40;0.40;;;15.10;99.90;;;;;;5068231;28;20481;-73
2022/05/10 05:21:49;;;;;;;;;;;15.10;99.90;;;;;;5051654;28;20042;-74
2022/05/10 05:24:15;;;;;;;0.28;0.28;;;15.10;99.90;;;;;;5049016;28;20338;-73
2022/05/10 05:26:40;;;;;;;;;;;15.20;99.90;;;;;;5052667;28;20102;-73
2022/05/10 05:29:06;;;;;;;0.20;0.20;;;15.20;99.90;;;;;;5000528;28;19966;-76
2022/05/10 05:31:32;;;;;;;;;;;15.20;99.90;;;;;;5046771;28;20045;-76
2022/05/10 05:33:58;;;;;;;0.20;0.20;;;15.30;99.90;;;;;;5025401;28;19925;-78
2022/05/10 05:36:24;;;;;;;0.30;0.30;;;15.30;99.90;;;;;;5003832;28;20446;-76
2022/05/10 05:38:51;;;;;;;0.57;0.57;;;15.40;99.90;;;;;;5030756;28;20069;-79
2022/05/10 05:41:20;;;;;;;0.22;0.22;;;15.40;99.90;;;;;;5033907;28;20068;-79
2022/05/10 05:43:48;;;;;;;1.05;0.98;;;15.50;99.90;;;;;;5028455;28;20227;-78
2022/05/10 05:46:14;;;;;;;;;;;15.60;99.90;;;;;;5042243;28;20129;-78
2022/05/10 05:48:40;;;;;;;0.30;0.30;;;15.60;99.90;;;;;;4992093;28;19921;-77
2022/05/10 05:51:06;;;;;;;;;;;15.70;99.90;;;;;;5044722;28;20049;-77
2022/05/10 05:53:33;;;;;;;0.38;0.38;;;15.80;99.90;;;;;;5012844;28;19925;-80
2022/05/10 05:56:02;;;;;;;0.40;0.40;;;15.90;99.90;;;;;;5015765;28;20063;-78
2022/05/10 05:58:27;;;;;;;0.47;0.47;;;16.00;99.90;;;;;;5033395;28;20048;-76
2022/05/10 06:00:54;;;;;;;;;;;16.10;99.90;;;;;;5028896;28;20102;-79
2022/05/10 06:03:21;;;;;;;0.52;0.52;;;16.10;99.90;;;;;;5044534;28;20031;-79
2022/05/10 06:05:49;;;;;;;0.57;0.57;;;16.20;99.90;;;;;;5010695;28;20053;-79
2022/05/10 06:08:16;;;;;;;0.30;0.30;;;16.30;99.90;;;;;;5024385;28;20045;-79
2022/05/10 06:10:42;;;;;;;0.98;0.95;;;16.30;99.90;;;;;;5033054;28;20049;-83
2022/05/10 06:13:09;;;;;;;0.40;0.40;;;16.50;99.90;;;;;;5013210;28;20124;-78
2022/05/10 06:15:36;;;;;;;0.40;0.40;;;16.50;99.90;;;;;;5023559;28;20045;-79
2022/05/10 06:18:06;;;;;;;0.30;0.30;;;16.60;99.90;;;;;;5024580;28;20042;-78
2022/05/10 06:20:33;;;;;;;0.50;0.50;;;16.80;99.90;;;;;;5043734;28;20041;-77
2022/05/10 06:22:58;;;;;;;0.98;0.98;;;17.00;99.90;;;;;;5050512;28;20045;-74
2022/05/10 06:25:24;;;;;;;;;;;17.10;99.90;;;;;;5038899;28;20033;-76
2022/05/10 06:27:51;;;;;;;0.60;0.60;;;17.30;99.90;;;;;;5043663;28;19982;-78
2022/05/10 06:30:19;;;;;;;0.60;0.60;;;17.50;99.90;;;;;;5015551;28;20072;-76
2022/05/10 06:32:45;;;;;;;0.20;0.20;;;17.70;99.90;;;;;;5025904;28;20080;-76
2022/05/10 06:35:10;;;;;;;;;;;17.90;99.90;;;;;;5029112;28;20087;-77
2022/05/10 06:40:21;;;;;;;0.20;0.20;;;18.20;99.90;;;;;;5029450;28;20045;-80
2022/05/10 06:42:46;;;;;;;0.50;0.50;;;18.40;99.90;;;;;;5010797;28;20507;-78
2022/05/10 06:45:14;;;;;;;;;;;18.50;99.90;;;;;;5023116;28;20096;-75
2022/05/10 06:47:42;;;;;;;0.32;0.32;;;18.70;99.90;;;;;;5036877;28;19971;-80
2022/05/10 06:50:11;;;;;;;0.43;0.43;;;19.00;99.90;;;;;;5031900;28;20114;-79
2022/05/10 06:52:37;;;;;;;1.05;0.95;;;19.20;99.90;;;;;;5011868;28;20080;-73
2022/05/10 06:55:04;;;;;;;0.43;0.43;;;19.40;99.90;;;;;;5028032;28;20485;-76
2022/05/10 06:57:29;;;;;;;0.43;0.43;;;19.50;99.90;;;;;;5028968;28;20045;-76
2022/05/10 06:59:55;;;;;;;2.28;1.20;;;19.60;99.90;;;;;;5028796;28;20128;-77
2022/05/10 07:02:22;;;;;;;;;;;19.70;99.90;;;;;;5028892;28;20133;-82
2022/05/10 07:04:47;;;;;;;2.37;1.07;;;19.80;99.90;;;;;;5031297;28;19963;-79
2022/05/10 07:07:13;;;;;;;;;;;19.80;99.10;;;;;;5016652;28;20324;-82
2022/05/10 07:09:38;;;;;;;0.65;0.65;;;19.80;99.90;;;;;;5022591;28;19920;-77
2022/05/10 07:12:04;;;;;;;;;;;19.90;99.90;;;;;;5045411;28;20478;-82
2022/05/10 07:14:30;;;;;;;0.43;0.43;;;20.00;99.40;;;;;;5028902;28;19971;-79
2022/05/10 07:16:56;;;;;;;1.13;0.95;;;20.10;98.90;;;;;;5016612;28;20506;-78
2022/05/10 07:19:22;;;;;;;0.85;0.85;;;20.20;98.90;;;;;;5015952;28;20080;-78
2022/05/10 07:21:49;;;;;;;0.22;0.22;;;19.90;98.60;;;;;;5034351;28;20057;-77
2022/05/10 07:24:19;;;;;;;0.40;0.40;;;20.30;99.70;;;;;;5029893;28;20073;-77
2022/05/10 07:26:45;;;;;;;0.55;0.55;;;20.30;98.80;;;;;;5032795;28;20467;-79
2022/05/10 07:29:14;;;;;;;0.20;0.20;;;20.40;98.70;;;;;;5044668;28;20359;-81
2022/05/10 07:31:41;;;;;;;0.30;0.30;;;20.60;97.70;;;;;;5023719;28;20501;-82
2022/05/10 07:34:07;;;;;;;1.80;1.23;;;20.90;98.10;;;;;;5054865;28;20045;-77
2022/05/10 07:36:35;;;;;;;0.55;0.55;;;20.90;96.60;;;;;;5031074;28;20128;-81
2022/05/10 07:39:04;;;;;;;0.30;0.30;;;21.20;97.10;;;;;;5025066;28;20045;-82
2022/05/10 07:41:33;;;;;;;0.40;0.40;;;21.30;97.30;;;;;;5031866;28;20495;-79
2022/05/10 07:44:00;;;;;;;0.63;0.63;;;;;;;;;;5043123;28;20061;-81
2022/05/10 07:46:27;;;;;;;1.08;0.73;;;21.50;94.80;;;;;;5031892;28;20477;-75
2022/05/10 07:48:52;;;;;;;0.30;0.30;;;21.60;96.10;;;;;;5042483;28;20049;-77
2022/05/10 07:51:19;;;;;;;2.92;1.05;;;21.70;93.70;;;;;;5052490;28;20099;-76
2022/05/10 07:53:47;;;;;;;1.25;1.15;;;21.70;93.70;;;;;;5035217;28;20058;-78
2022/05/10 07:56:13;;;;;;;0.90;0.90;;;21.70;94.90;;;;;;5049667;28;20047;-80
2022/05/10 07:58:39;;;;;;;0.70;0.65;;;21.70;94.50;;;;;;5036744;28;20042;-77
2022/05/10 08:01:05;;;;;;;0.38;0.38;;;21.60;94.10;;;;;;5032062;28;20390;-78
2022/05/10 08:03:31;;;;;;;0.73;0.57;;;21.50;94.00;;;;;;5033605;28;20048;-78
2022/05/10 08:06:01;;;;;;;2.92;0.95;;;21.60;92.70;;;;;;5040785;28;20053;-79
2022/05/10 08:08:29;;;;;;;0.57;0.57;;;21.60;92.80;;;;;;5035697;28;20044;-75
2022/05/10 08:10:56;;;;;;;0.15;0.15;;;21.70;93.60;;;;;;5050113;28;20132;-78
2022/05/10 08:13:25;;;;;;;7.07;0.77;;;21.80;93.00;;;;;;5040494;28;20061;-77
2022/05/10 08:15:52;;;;;;;0.55;0.50;;;21.90;93.30;;;;;;5041293;28;20041;-80
2022/05/10 08:18:19;;;;;;;0.70;0.70;;;22.00;92.90;;;;;;5027837;28;20049;-77
2022/05/10 08:20:45;;;;;;;0.40;0.40;;;22.10;91.70;;;;;;5024496;28;20045;-74
2022/05/10 08:23:22;;;;;;;1.13;1.08;;;22.20;92.40;;;;;;5043514;28;20199;-77
2022/05/10 08:25:53;;;;;;;0.85;0.85;;;22.20;90.60;;;;;;5026812;28;20052;-77
2022/05/10 08:28:18;;;;;;;0.25;0.25;;;22.20;91.40;;;;;;5051815;28;20050;-79
2022/05/10 08:30:46;;;;;;;0.30;0.30;;;22.10;90.40;;;;;;5029951;28;20021;-79
2022/05/10 08:33:23;;;;;;;0.10;0.10;;;22.10;90.60;;;;;;5040074;28;20102;-77
2022/05/10 08:35:55;;;;;;;0.57;0.57;;;22.20;90.70;;;;;;5043248;28;20463;-81
2022/05/10 08:38:21;;;;;;;0.30;0.30;;;22.30;91.50;;;;;;5014970;28;20475;-78
2022/05/10 08:41:02;;;;;;;0.20;0.20;;;22.40;91.90;;;;;;5060670;28;20053;-78
2022/05/10 08:43:42;;;;;;;0.52;0.52;;;22.70;91.50;;;;;;5044981;28;20072;-77
2022/05/10 08:46:13;;;;;;;0.55;0.55;;;22.80;90.20;;;;;;5033746;28;20106;-76
2022/05/10 08:48:39;;;;;;;0.60;0.60;;;22.90;88.90;;;;;;5039262;28;20040;-77
2022/05/10 08:51:07;;;;;;;0.50;0.35;;;23.00;89.30;;;;;;5034352;28;20072;-78
2022/05/10 08:53:33;;;;;;;0.45;0.30;;;23.10;86.60;;;;;;5042117;28;20033;-80
2022/05/10 08:56:29;;;;;;;0.77;0.77;;;23.10;86.60;;;;;;5005253;28;20390;-75
2022/05/10 08:59:28;;;;;;;1.67;1.10;;;22.90;88.40;;;;;;5030386;28;20057;-75
2022/05/10 09:02:03;;;;;;;0.30;0.30;;;22.80;85.60;;;;;;5060722;28;20053;-76
2022/05/10 09:05:05;;;;;;;0.10;0.10;;;22.80;87.70;;;;;;5041070;28;20041;-77
2022/05/10 09:07:55;;;;;;;0.30;0.30;;;22.80;85.70;;;;;;5028386;28;20049;-75
2022/05/10 09:10:43;;;;;;;0.25;0.25;;;22.80;86.50;;;;;;5038932;28;20071;-75
2022/05/10 09:13:16;;;;;;;0.50;0.50;;;22.90;86.40;;;;;;5032461;28;20136;-77
2022/05/10 09:15:54;;;;;;;0.20;0.20;;;23.00;84.80;;;;;;5040163;28;20129;-77
2022/05/10 09:18:40;;;;;;;0.20;0.20;;;23.00;87.10;;;;;;5018261;28;20052;-76
2022/05/10 09:21:22;;;;;;;0.40;0.40;;;23.10;84.90;;;;;;5048444;28;20057;-78
2022/05/10 09:23:57;;;;;;;0.55;0.55;;;23.10;83.40;;;;;;5030526;28;20042;-76
2022/05/10 09:26:30;;;;;;;0.30;0.30;;;23.00;83.20;;;;;;5028718;28;20617;-77
2022/05/10 09:29:15;;;;;;;0.55;0.55;;;24.00;83.40;;;;;;5042416;28;20150;-79
2022/05/10 09:34:46;;;;;;;0.77;0.77;;;23.30;80.90;;;;;;5033067;28;20132;-74
2022/05/10 09:37:20;;;;;;;0.20;0.20;;;23.40;81.00;;;;;;5045915;28;20048;-80
2022/05/10 09:39:56;;;;;;;0.30;0.30;;;23.60;81.90;;;;;;5042663;28;20045;-80
2022/05/10 09:42:29;;;;;;;2.08;0.30;;;23.80;80.60;;;;;;5031077;28;20060;-80
2022/05/10 09:45:11;;;;;;;0.63;0.40;;;23.90;76.80;;;;;;5034317;28;20188;-81
2022/05/10 09:47:38;;;;;;;0.65;0.60;;;23.90;77.90;;;;;;5034592;28;20069;-79
2022/05/10 09:50:32;;;;;;;0.43;0.43;;;24.10;78.10;;;;;;5032192;28;20034;-80
2022/05/10 09:53:20;;;;;;;0.47;0.40;;;24.30;77.90;;;;;;5014612;28;20061;-83
2022/05/10 09:56:00;;;;;;;0.20;0.20;;;24.50;75.70;;;;;;5019381;28;20041;-85
2022/05/10 09:58:30;;;;;;;0.20;0.20;;;24.80;76.70;;;;;;5037519;28;20073;-85
2022/05/10 10:00:59;;;;;;;1.80;0.60;;;25.00;74.90;;;;;;5030620;28;20049;-82
2022/05/10 10:03:37;;;;;;;0.43;0.43;;;24.90;73.70;;;;;;5048732;28;20045;-84
2022/05/10 10:06:23;;;;;;;0.20;0.20;;;24.70;74.60;;;;;;5023246;28;20048;-75
2022/05/10 10:08:54;;;;;;;0.40;0.40;;;24.30;74.10;;;;;;5040294;28;20044;-75
2022/05/10 10:11:39;;;;;;;0.30;0.30;;;24.10;74.40;;;;;;5029748;28;20041;-82
2022/05/10 10:14:07;;;;;;;0.55;0.55;;;23.90;75.00;;;;;;5036253;28;20479;-78
2022/05/10 10:16:51;;;;;;;1.35;0.88;;;23.90;74.60;;;;;;5030469;28;20376;-76
2022/05/10 10:19:25;;;;;;;0.63;0.63;;;23.90;74.80;;;;;;5032835;28;20045;-79
2022/05/10 10:21:59;;;;;;;1.05;1.05;;;23.90;75.50;;;;;;5033270;28;20103;-77
2022/05/10 10:24:44;;;;;;;0.75;0.75;;;24.00;74.30;;;;;;5029427;28;20042;-77
2022/05/10 10:27:25;;;;;;;0.68;0.68;;;24.00;74.10;;;;;;5039880;28;20049;-76
2022/05/10 10:29:56;;;;;;;0.45;0.45;;;24.10;74.90;;;;;;5021279;28;20037;-76
2022/05/10 10:32:44;;;;;;;0.98;0.98;;;24.30;74.30;;;;;;5024104;28;20414;-76
2022/05/10 10:35:44;;;;;;;2.60;1.45;;;24.40;73.70;;;;;;5039965;28;20482;-77
2022/05/10 10:38:28;;;;;;;0.77;0.43;;;24.30;73.60;;;;;;5024766;28;20072;-77
2022/05/10 10:41:05;;;;;;;1.00;0.70;;;24.40;74.10;;;;;;5043020;28;20140;-75
2022/05/10 10:43:38;;;;;;;;;;;24.30;74.90;;;;;;5029382;28;20476;-77
2022/05/10 10:46:42;;;;;;;2.10;1.20;;;24.30;74.40;;;;;;5043278;28;19921;-77
2022/05/10 10:49:13;;;;;;;0.38;0.35;;;24.40;75.20;;;;;;4975125;28;20586;-77
2022/05/10 10:51:39;;;;;;;0.40;0.40;;;24.60;75.80;;;;;;5029912;28;20046;-76
2022/05/10 10:54:13;;;;;;;1.10;0.98;;;24.50;74.90;;;;;;5027118;28;20140;-77
2022/05/10 10:56:53;;;;;;;1.55;0.73;;;24.40;75.20;;;;;;5045840;28;20549;-74
2022/05/10 10:59:24;;;;;;;0.60;0.38;;;24.30;74.30;;;;;;5026442;28;20461;-77
2022/05/10 11:02:20;;;;;;;0.55;0.55;;;24.10;74.70;;;;;;5045151;28;20053;-77
2022/05/10 11:04:57;;;;;;;0.60;0.60;;;24.00;74.80;;;;;;5025650;28;20049;-77
2022/05/10 11:08:00;;;;;;;0.98;0.57;;;23.70;75.10;;;;;;5028825;28;20057;-79
2022/05/10 11:10:48;;;;;;;1.42;1.23;;;23.40;78.00;;;;;;5021871;28;20486;-77
2022/05/10 11:13:26;;;;;;;0.50;0.50;;;23.10;81.70;;;;;;5042881;28;20103;-78
2022/05/10 11:16:03;;;;;;;1.00;1.00;;;22.80;82.70;;;;;;5037562;28;20111;-80
2022/05/10 11:19:01;;;;;;;0.30;0.30;;;22.70;81.60;;;;;;5048169;28;20049;-78
2022/05/10 11:21:50;;;;;;;1.08;0.73;;;22.70;80.60;;;;;;5046985;28;20084;-81
2022/05/10 11:24:44;;;;;;;0.70;0.70;;;22.90;80.60;;;;;;5001008;28;20380;-77
2022/05/10 11:27:48;;;;;;;1.52;0.98;;;23.10;77.40;;;;;;5056571;28;20046;-75
2022/05/10 11:30:21;;;;;;;0.50;0.50;;;23.20;75.80;;;;;;5036203;28;20437;-83
2022/05/10 11:33:04;;;;;;;0.55;0.55;;;23.20;74.50;;;;;;5015863;28;20169;-75
2022/05/10 11:35:53;;;;;;;0.30;0.30;;;23.30;74.30;;;;;;5037701;28;20064;-81
2022/05/10 11:38:40;;;;;;;0.28;0.20;;;23.30;73.70;;;;;;5020832;28;20464;-75
2022/05/10 11:42:00;;;;;;;0.28;0.28;;;23.40;74.40;;;;;;5046681;28;20120;-80
2022/05/10 11:44:40;;;;;;;0.57;0.50;;;23.60;73.90;;;;;;5003335;28;20045;-83
2022/05/10 11:47:30;;;;;;;0.75;0.55;;;23.70;73.70;;;;;;5026559;28;20058;-79
2022/05/10 11:50:15;;;;;;;0.30;0.30;;;23.80;73.90;;;;;;5032003;28;20091;-76
2022/05/10 11:53:11;;;;;;;0.40;0.40;;;23.90;73.20;;;;;;5017937;28;20044;-77
2022/05/10 11:55:47;;;;;;;0.38;0.38;;;23.70;72.80;;;;;;5025789;28;20102;-74
2022/05/10 11:58:14;;;;;;;0.50;0.40;;;23.50;73.20;;;;;;5049411;28;20056;-80
2022/05/10 12:01:03;;;;;;;0.45;0.43;;;23.40;73.70;;;;;;5033111;28;20045;-80
2022/05/10 12:03:44;;;;;;;0.65;0.57;;;23.50;74.20;;;;;;5018122;28;20053;-82
2022/05/10 12:06:25;;;;;;;0.73;0.73;;;23.70;74.80;;;;;;5051255;28;20063;-83
2022/05/10 12:08:53;;;;;;;0.70;0.45;;;24.10;74.20;;;;;;5052081;28;20037;-78
2022/05/10 12:11:27;;;;;;;0.50;0.50;;;24.10;74.50;;;;;;5038047;28;20385;-79
2022/05/10 12:22:53;;;;;;;1.27;1.20;;;24.40;73.60;;;;;;5036718;28;20102;-77
2022/05/10 12:25:41;;;;;;;0.45;0.45;;;24.30;74.70;;;;;;5050632;28;20136;-73
2022/05/10 12:28:07;;;;;;;0.60;0.60;;;24.30;74.00;;;;;;5048584;28;20135;-75
2022/05/10 12:30:34;;;;;;;1.05;0.88;;;24.20;74.80;;;;;;5032006;28;20057;-80
2022/05/10 12:33:45;;;;;;;0.47;0.47;;;24.20;75.60;;;;;;5029144;28;20749;-80
2022/05/10 12:36:27;;;;;;;;;;;24.40;75.80;;;;;;5032414;28;20041;-83
2022/05/10 12:38:52;;;;;;;0.80;0.80;;;24.30;76.00;;;;;;5032135;28;19927;-81
2022/05/10 12:41:53;;;;;;;0.73;0.73;;;24.10;75.40;;;;;;5012909;28;20052;-81
2022/05/10 12:44:41;;;;;;;0.45;0.45;;;23.90;74.40;;;;;;5052064;28;20479;-85
2022/05/10 12:47:25;;;;;;;0.82;0.82;;;23.60;74.70;;;;;;5016849;28;20064;-81
2022/05/10 12:50:01;;;;;;;0.63;0.63;;;23.40;76.00;;;;;;5041519;28;20092;-81
2022/05/10 12:52:40;;;;;;;0.65;0.65;;;23.40;75.60;;;;;;5053188;28;20063;-81
2022/05/10 12:55:16;;;;;;;1.08;0.80;;;23.30;75.70;;;;;;5036413;28;20049;-77
2022/05/10 12:58:10;;;;;;;0.88;0.88;;;23.30;75.40;;;;;;5016615;28;20114;-80
2022/05/10 13:00:44;;;;;;;0.30;0.30;;;23.10;73.60;;;;;;5039663;28;20048;-82
2022/05/10 13:03:20;;;;;;;0.35;0.35;;;22.90;72.00;;;;;;5054777;28;20120;-77
2022/05/10 13:06:22;;;;;;;0.68;0.68;;;22.90;71.40;;;;;;5038047;28;20061;-78
2022/05/10 13:09:04;;;;;;;0.55;0.55;;;22.90;70.30;;;;;;5043806;28;20156;-79
2022/05/10 13:11:49;;;;;;;0.20;0.20;;;22.90;68.10;;;;;;5035264;28;20052;-80
2022/05/10 13:14:17;;;;;;;1.30;1.27;;;22.80;68.70;;;;;;5043580;28;20053;-79
2022/05/10 13:16:46;;;;;;;3.92;0.98;;;22.70;67.70;;;;;;5032915;28;20053;-78
2022/05/10 13:19:13;;;;;;;0.95;0.73;;;22.70;66.60;;;;;;5031362;28;20309;-78
2022/05/10 13:21:38;;;;;;;0.40;0.40;;;22.70;64.70;;;;;;5029909;28;20045;-77
2022/05/10 13:24:14;;;;;;;0.40;0.40;;;22.70;64.00;;;;;;5038701;28;20052;-82
2022/05/10 13:27:01;;;;;;;1.10;1.02;;;22.50;64.20;;;;;;5025251;28;20083;-78
2022/05/10 13:29:42;;;;;;;0.35;0.35;;;22.20;63.90;;;;;;5022894;28;20046;-76
2022/05/10 13:32:27;;;;;;;0.40;0.40;;;22.10;62.70;;;;;;5031734;28;20524;-77
2022/05/10 13:34:54;;;;;;;0.85;0.85;;;22.00;63.20;;;;;;5035753;28;20205;-76
2022/05/10 13:37:29;;;;;;;1.02;0.88;;;22.00;63.90;;;;;;5032489;28;20052;-80
2022/05/10 13:40:05;;;;;;;0.88;0.88;;;22.00;64.00;;;;;;5030958;28;20162;-81
2022/05/10 13:42:42;;;;;;;0.30;0.30;;;22.00;62.90;;;;;;5032547;28;20057;-78
2022/05/10 13:45:10;;;;;;;1.35;0.57;;;22.00;61.40;;;;;;5026926;28;20132;-78
2022/05/10 13:47:36;;;;;;;0.47;0.47;;;21.90;60.40;;;;;;5060375;28;20030;-77
2022/05/10 13:50:02;;;;;;;0.40;0.40;;;21.90;59.50;;;;;;5024217;28;20578;-76
2022/05/10 13:52:56;;;;;;;0.20;0.20;;;21.80;59.50;;;;;;5053706;28;20053;-78